createdAt,value
2019-02-04T00:03:25.651Z,3.16
2019-02-04T00:05:54.061Z,3.23
2019-02-04T00:08:22.406Z,3.04
2019-02-04T00:10:50.745Z,2.98
2019-02-04T00:13:19.089Z,2.84
2019-02-04T00:15:47.498Z,2.58
2019-02-04T00:18:15.904Z,2.64
2019-02-04T00:20:44.309Z,2.54
2019-02-04T00:23:12.812Z,2.60
2019-02-04T00:25:41.682Z,2.54
2019-02-04T00:28:10.020Z,2.46
2019-02-04T00:30:38.401Z,2.40
2019-02-04T00:33:06.830Z,2.44
2019-02-04T00:35:35.200Z,2.43
2019-02-04T00:38:03.650Z,2.45
2019-02-04T00:40:32.340Z,2.48
2019-02-04T00:43:00.685Z,2.23
2019-02-04T00:45:29.020Z,2.17
2019-02-04T00:47:57.352Z,2.07
2019-02-04T00:50:25.779Z,2.00
2019-02-04T00:52:54.282Z,1.99
2019-02-04T00:55:23.091Z,1.93
2019-02-04T00:57:51.490Z,2.09
2019-02-04T01:00:23.087Z,2.09
2019-02-04T01:02:51.673Z,2.02
2019-02-04T01:05:20.403Z,2.04
2019-02-04T01:07:48.969Z,1.92
2019-02-04T01:10:21.377Z,1.94
2019-02-04T01:12:49.946Z,1.98
2019-02-04T01:15:18.380Z,1.92
2019-02-04T01:17:46.757Z,1.89
2019-02-04T01:20:18.246Z,1.88
2019-02-04T01:22:46.643Z,1.87
2019-02-04T01:25:15.429Z,1.68
2019-02-04T01:27:43.858Z,1.64
2019-02-04T01:30:15.217Z,1.55
2019-02-04T01:32:43.573Z,1.48
2019-02-04T01:35:14.228Z,1.49
2019-02-04T01:37:42.983Z,1.51
2019-02-04T01:40:14.597Z,1.47
2019-02-04T01:42:42.949Z,1.44
2019-02-04T01:45:12.836Z,1.45
2019-02-04T01:47:41.187Z,1.36
2019-02-04T01:50:13.767Z,1.40
2019-02-04T01:52:42.213Z,1.41
2019-02-04T01:55:13.517Z,1.47
2019-02-04T01:57:42.479Z,1.48
2019-02-04T02:00:16.034Z,1.37
2019-02-04T02:02:44.455Z,1.32
2019-02-04T02:05:13.721Z,1.37
2019-02-04T02:07:42.115Z,1.38
2019-02-04T02:10:12.416Z,1.39
2019-02-04T02:12:40.748Z,1.28
2019-02-04T02:15:09.511Z,1.27
2019-02-04T02:17:37.862Z,1.29
2019-02-04T02:20:12.050Z,1.24
2019-02-04T02:22:40.353Z,1.30
2019-02-04T02:25:08.992Z,1.25
2019-02-04T02:27:37.589Z,1.21
2019-02-04T02:30:10.908Z,1.11
2019-02-04T02:32:39.860Z,1.10
2019-02-04T02:35:08.590Z,1.04
2019-02-04T02:37:36.956Z,1.06
2019-02-04T02:40:11.235Z,1.03
2019-02-04T02:42:39.565Z,1.11
2019-02-04T02:45:08.662Z,0.94
2019-02-04T02:47:38.829Z,1.00
2019-02-04T02:50:11.424Z,0.90
2019-02-04T02:52:39.908Z,1.07
2019-02-04T02:55:11.153Z,0.91
2019-02-04T02:57:39.539Z,1.05
2019-02-04T03:00:13.483Z,0.98
2019-02-04T03:02:41.873Z,1.00
2019-02-04T03:05:13.726Z,0.93
2019-02-04T03:07:42.099Z,0.95
2019-02-04T03:10:15.839Z,0.93
2019-02-04T03:12:44.284Z,0.86
2019-02-04T03:15:13.530Z,0.90
2019-02-04T03:17:50.997Z,0.89
2019-02-04T03:20:13.378Z,0.88
2019-02-04T03:22:41.834Z,0.74
2019-02-04T03:25:13.752Z,0.83
2019-02-04T03:27:42.535Z,0.76
2019-02-04T03:30:14.195Z,0.72
2019-02-04T03:32:42.643Z,0.67
2019-02-04T03:35:11.661Z,0.54
2019-02-04T03:37:39.972Z,0.67
2019-02-04T03:40:14.112Z,0.77
2019-02-04T03:42:42.523Z,0.70
2019-02-04T03:45:12.604Z,0.69
2019-02-04T03:47:41.029Z,0.62
2019-02-04T03:50:12.027Z,0.48
2019-02-04T03:52:40.342Z,0.55
2019-02-04T03:55:12.853Z,0.51
2019-02-04T03:57:41.237Z,0.45
2019-02-04T04:00:15.027Z,0.47
2019-02-04T04:02:43.394Z,0.47
2019-02-04T04:05:13.211Z,0.51
2019-02-04T04:07:42.024Z,0.64
2019-02-04T04:10:11.154Z,0.57
2019-02-04T04:12:39.486Z,0.62
2019-02-04T04:15:10.293Z,0.64
2019-02-04T04:17:38.805Z,0.47
2019-02-04T04:20:10.545Z,0.48
2019-02-04T04:22:39.340Z,0.45
2019-02-04T04:25:09.648Z,0.41
2019-02-04T04:27:38.007Z,0.38
2019-02-04T04:33:17.832Z,0.43
2019-02-04T04:35:46.170Z,0.45
2019-02-04T04:38:14.531Z,0.48
2019-02-04T04:40:43.096Z,0.47
2019-02-04T04:43:11.906Z,0.42
2019-02-04T04:45:40.225Z,0.47
2019-02-04T04:48:08.715Z,0.41
2019-02-04T04:50:37.032Z,0.38
2019-02-04T04:53:05.518Z,0.47
2019-02-04T04:55:34.415Z,0.52
2019-02-04T04:58:02.848Z,0.48
2019-02-04T05:00:31.478Z,0.52
2019-02-04T05:02:59.943Z,0.36
2019-02-04T05:05:28.371Z,0.39
2019-02-04T05:07:56.712Z,0.32
2019-02-04T05:10:25.113Z,0.33
2019-02-04T05:12:53.577Z,0.30
2019-02-04T05:15:23.914Z,0.28
2019-02-04T05:17:52.787Z,0.15
2019-02-04T05:20:21.590Z,0.06
2019-02-04T05:22:50.000Z,-0.05
2019-02-04T05:25:18.518Z,-0.02
2019-02-04T05:27:46.946Z,0.01
2019-02-04T05:30:19.195Z,-0.03
2019-02-04T05:32:47.576Z,0.11
2019-02-04T05:35:15.989Z,-0.05
2019-02-04T05:37:44.428Z,-0.03
2019-02-04T05:40:15.459Z,-0.02
2019-02-04T05:42:44.272Z,0.06
2019-02-04T05:45:14.602Z,-0.04
2019-02-04T05:47:43.141Z,-0.07
2019-02-04T05:50:13.244Z,-0.17
2019-02-04T05:52:41.711Z,-0.21
2019-02-04T05:55:12.087Z,-0.14
2019-02-04T05:57:41.046Z,-0.23
2019-02-04T06:00:14.009Z,-0.13
2019-02-04T06:02:42.448Z,-0.11
2019-02-04T06:05:12.550Z,-0.40
2019-02-04T06:07:40.894Z,-0.46
2019-02-04T06:10:11.520Z,-0.28
2019-02-04T06:12:39.927Z,-0.48
2019-02-04T06:15:12.599Z,-0.63
2019-02-04T06:17:41.097Z,-0.75
2019-02-04T06:20:14.226Z,-0.69
2019-02-04T06:22:42.659Z,-0.64
2019-02-04T06:25:11.736Z,-0.68
2019-02-04T06:27:40.265Z,-0.70
2019-02-04T06:30:11.991Z,-0.70
2019-02-04T06:32:41.081Z,-0.65
2019-02-04T06:35:09.858Z,-0.60
2019-02-04T06:37:38.303Z,-0.39
2019-02-04T06:40:10.798Z,-0.54
2019-02-04T06:42:39.226Z,-0.49
2019-02-04T06:45:10.606Z,-0.49
2019-02-04T06:47:39.139Z,-0.41
2019-02-04T06:50:11.341Z,-0.30
2019-02-04T06:52:40.150Z,-0.15
2019-02-04T06:55:11.437Z,-0.14
2019-02-04T06:57:39.780Z,-0.16
2019-02-04T07:00:10.260Z,-0.32
2019-02-04T07:02:38.667Z,-0.66
2019-02-04T07:05:08.507Z,-0.67
2019-02-04T07:07:37.162Z,-0.27
2019-02-04T07:10:11.702Z,-0.05
2019-02-04T07:12:40.062Z,-0.13
2019-02-04T07:15:10.101Z,0.16
2019-02-04T07:17:38.461Z,0.43
2019-02-04T07:20:10.767Z,0.78
2019-02-04T07:22:39.137Z,0.95
2019-02-04T07:25:10.825Z,1.02
2019-02-04T07:27:39.166Z,1.37
2019-02-04T07:30:11.359Z,1.46
2019-02-04T07:32:39.751Z,1.55
2019-02-04T07:35:09.943Z,1.86
2019-02-04T07:37:38.333Z,2.09
2019-02-04T07:40:10.282Z,2.46
2019-02-04T07:42:38.602Z,2.67
2019-02-04T07:45:10.047Z,2.85
2019-02-04T07:47:38.433Z,2.63
2019-02-04T07:50:09.889Z,2.72
2019-02-04T07:52:38.353Z,3.36
2019-02-04T07:55:09.522Z,3.93
2019-02-04T07:57:37.838Z,3.91
2019-02-04T08:03:15.530Z,3.78
2019-02-04T08:05:43.920Z,3.31
2019-02-04T08:08:12.265Z,3.33
2019-02-04T08:10:40.644Z,2.96
2019-02-04T08:13:09.477Z,2.98
2019-02-04T08:15:38.258Z,3.01
2019-02-04T08:18:07.396Z,3.53
2019-02-04T08:20:35.969Z,4.10
2019-02-04T08:23:04.488Z,4.77
2019-02-04T08:25:32.821Z,5.01
2019-02-04T08:28:01.155Z,4.58
2019-02-04T08:30:33.176Z,4.49
2019-02-04T08:33:01.644Z,4.26
2019-02-04T08:35:30.831Z,3.78
2019-02-04T08:37:59.728Z,3.99
2019-02-04T08:40:28.723Z,4.29
2019-02-04T08:42:57.342Z,4.04
2019-02-04T08:45:26.493Z,4.08
2019-02-04T08:47:54.915Z,4.18
2019-02-04T08:50:24.971Z,4.16
2019-02-04T08:52:54.001Z,4.39
2019-02-04T08:55:23.492Z,4.41
2019-02-04T08:57:53.106Z,4.43
2019-02-04T09:00:22.888Z,5.45
2019-02-04T09:02:52.323Z,6.51
2019-02-04T09:05:21.997Z,6.54
2019-02-04T09:07:50.361Z,6.34
2019-02-04T09:10:23.653Z,6.11
2019-02-04T09:12:52.490Z,5.36
2019-02-04T09:15:21.097Z,5.15
2019-02-04T09:17:49.674Z,4.79
2019-02-04T09:20:18.658Z,4.57
2019-02-04T09:22:47.224Z,4.70
2019-02-04T09:25:16.687Z,4.71
2019-02-04T09:27:45.577Z,4.57
2019-02-04T09:30:16.666Z,4.48
2019-02-04T09:32:44.985Z,4.35
2019-02-04T09:35:16.659Z,4.29
2019-02-04T09:37:45.206Z,4.31
2019-02-04T09:40:17.889Z,4.46
2019-02-04T09:42:46.726Z,4.33
2019-02-04T09:45:16.705Z,4.19
2019-02-04T09:47:45.708Z,4.37
2019-02-04T09:50:21.773Z,4.64
2019-02-04T09:52:46.753Z,4.61
2019-02-04T09:55:17.850Z,4.65
2019-02-04T09:57:46.558Z,4.41
2019-02-04T10:00:19.166Z,4.36
2019-02-04T10:02:47.610Z,4.27
2019-02-04T10:05:17.466Z,4.53
2019-02-04T10:07:45.892Z,4.50
2019-02-04T10:10:17.577Z,4.55
2019-02-04T10:12:46.039Z,4.59
2019-02-04T10:15:17.619Z,4.57
2019-02-04T10:17:46.238Z,4.57
2019-02-04T10:20:16.461Z,4.74
2019-02-04T10:22:45.398Z,4.90
2019-02-04T10:25:16.767Z,4.82
2019-02-04T10:27:45.325Z,4.74
2019-02-04T10:30:16.586Z,5.03
2019-02-04T10:32:45.143Z,4.97
2019-02-04T10:35:16.771Z,4.93
2019-02-04T10:37:45.222Z,4.97
2019-02-04T10:40:16.826Z,5.00
2019-02-04T10:42:45.284Z,5.12
2019-02-04T10:45:15.631Z,4.97
2019-02-04T10:47:44.171Z,5.28
2019-02-04T10:50:14.975Z,5.14
2019-02-04T10:52:44.749Z,5.34
2019-02-04T10:55:13.379Z,5.51
2019-02-04T10:57:41.942Z,5.71
2019-02-04T11:00:15.030Z,5.71
2019-02-04T11:02:43.639Z,5.91
2019-02-04T11:05:14.531Z,5.93
2019-02-04T11:07:43.276Z,5.97
2019-02-04T11:10:15.914Z,6.07
2019-02-04T11:12:44.447Z,6.27
2019-02-04T11:15:15.985Z,6.20
2019-02-04T11:17:44.485Z,6.49
2019-02-04T11:20:18.417Z,6.55
2019-02-04T11:22:47.069Z,6.53
2019-02-04T11:25:15.788Z,6.62
2019-02-04T11:27:44.382Z,6.61
2019-02-04T11:30:19.913Z,6.11
2019-02-04T11:32:48.901Z,6.52
2019-02-04T11:35:17.526Z,6.61
2019-02-04T11:37:46.120Z,6.60
2019-02-04T11:40:18.461Z,6.58
2019-02-04T11:42:46.882Z,6.81
2019-02-04T11:45:15.753Z,6.88
2019-02-04T11:47:44.614Z,6.91
2019-02-04T11:50:14.586Z,6.74
2019-02-04T11:52:42.930Z,6.84
2019-02-04T11:55:14.489Z,6.86
2019-02-04T11:57:43.136Z,7.01
2019-02-04T12:00:16.440Z,6.92
2019-02-04T12:02:45.321Z,7.07
2019-02-04T12:05:16.968Z,6.65
2019-02-04T12:07:45.483Z,6.46
2019-02-04T12:10:17.389Z,6.84
2019-02-04T12:12:45.763Z,6.89
2019-02-04T12:15:18.047Z,6.80
2019-02-04T12:17:46.491Z,6.98
2019-02-04T12:20:16.954Z,7.08
2019-02-04T12:22:46.022Z,7.19
2019-02-04T12:25:18.868Z,7.23
2019-02-04T12:27:47.193Z,7.13
2019-02-04T12:30:19.702Z,7.28
2019-02-04T12:32:48.086Z,7.24
2019-02-04T12:35:16.579Z,7.28
2019-02-04T12:37:44.993Z,7.17
2019-02-04T12:40:16.117Z,7.03
2019-02-04T12:42:44.589Z,6.79
2019-02-04T12:45:17.388Z,6.94
2019-02-04T12:47:45.770Z,6.97
2019-02-04T12:50:14.946Z,6.93
2019-02-04T12:52:43.389Z,6.93
2019-02-04T12:55:15.854Z,7.02
2019-02-04T12:57:44.650Z,7.16
2019-02-04T13:00:17.794Z,7.29
2019-02-04T13:02:46.178Z,7.43
2019-02-04T13:05:17.663Z,7.42
2019-02-04T13:07:46.002Z,7.35
2019-02-04T13:10:15.505Z,7.08
2019-02-04T13:12:44.283Z,7.09
2019-02-04T13:15:16.106Z,7.17
2019-02-04T13:17:44.580Z,7.31
2019-02-04T13:20:15.870Z,7.07
2019-02-04T13:22:44.196Z,6.69
2019-02-04T13:25:16.874Z,6.86
2019-02-04T13:27:45.212Z,6.88
2019-02-04T13:30:16.811Z,6.73
2019-02-04T13:32:45.185Z,6.94
2019-02-04T13:35:14.428Z,7.07
2019-02-04T13:37:43.207Z,7.02
2019-02-04T13:40:15.039Z,7.27
2019-02-04T13:42:43.776Z,7.20
2019-02-04T13:45:15.955Z,7.06
2019-02-04T13:47:44.447Z,7.28
2019-02-04T13:50:15.006Z,7.35
2019-02-04T13:52:44.197Z,7.29
2019-02-04T13:55:16.621Z,7.22
2019-02-04T13:57:45.183Z,7.38
2019-02-04T14:00:16.047Z,7.19
2019-02-04T14:02:44.556Z,7.27
2019-02-04T14:05:13.089Z,7.42
2019-02-04T14:07:41.861Z,7.28
2019-02-04T14:10:15.526Z,6.98
2019-02-04T14:12:45.599Z,7.02
2019-02-04T14:15:16.395Z,7.11
2019-02-04T14:17:44.912Z,6.80
2019-02-04T14:20:15.524Z,6.52
2019-02-04T14:22:43.946Z,6.37
2019-02-04T14:25:12.599Z,6.43
2019-02-04T14:27:41.017Z,6.29
2019-02-04T14:30:15.677Z,6.41
2019-02-04T14:32:44.020Z,6.46
2019-02-04T14:35:12.383Z,6.45
2019-02-04T14:37:40.751Z,6.55
2019-02-04T14:40:18.599Z,6.55
2019-02-04T14:42:41.670Z,6.61
2019-02-04T14:45:13.245Z,6.58
2019-02-04T14:47:42.753Z,6.33
2019-02-04T14:50:16.463Z,6.41
2019-02-04T14:52:49.396Z,6.45
2019-02-04T14:58:35.213Z,6.34
2019-02-04T15:01:10.106Z,6.11
2019-02-04T15:03:42.081Z,6.17
2019-02-04T15:06:15.470Z,6.03
2019-02-04T15:08:49.574Z,5.94
2019-02-04T15:11:21.371Z,6.00
2019-02-04T15:17:02.131Z,5.71
2019-02-04T15:19:37.816Z,5.78
2019-02-04T15:25:20.238Z,5.62
2019-02-04T15:27:54.861Z,5.44
2019-02-04T15:30:26.369Z,5.50
2019-02-04T15:33:00.188Z,5.54
2019-02-04T15:35:32.109Z,5.59
2019-02-04T15:38:02.409Z,5.62
2019-02-04T15:40:35.472Z,5.41
2019-02-04T15:43:08.122Z,5.30
2019-02-04T15:45:40.781Z,5.37
2019-02-04T15:48:09.780Z,5.34
2019-02-04T15:50:42.628Z,5.35
2019-02-04T15:53:11.033Z,5.34
2019-02-04T15:55:40.107Z,5.16
2019-02-04T15:58:08.886Z,5.16
2019-02-04T16:00:37.612Z,5.26
2019-02-04T16:03:06.426Z,5.19
2019-02-04T16:05:34.789Z,5.19
2019-02-04T16:08:03.170Z,5.10
2019-02-04T16:10:31.545Z,5.10
2019-02-04T16:12:59.886Z,5.04
2019-02-04T16:15:28.408Z,5.07
2019-02-04T16:17:57.005Z,5.13
2019-02-04T16:20:25.475Z,5.04
2019-02-04T16:22:58.449Z,4.80
2019-02-04T16:25:24.277Z,4.98
2019-02-04T16:27:52.692Z,5.01
2019-02-04T16:30:21.993Z,4.89
2019-02-04T16:32:52.838Z,5.01
2019-02-04T16:35:20.807Z,5.08
2019-02-04T16:37:50.485Z,4.96
2019-02-04T16:40:21.927Z,5.01
2019-02-04T16:42:50.544Z,5.02
2019-02-04T16:45:21.303Z,5.08
2019-02-04T16:47:50.177Z,5.00
2019-02-04T16:50:20.929Z,4.89
2019-02-04T16:52:49.390Z,4.93
2019-02-04T16:55:18.489Z,4.94
2019-02-04T16:57:46.900Z,4.91
2019-02-04T17:00:17.689Z,4.82
2019-02-04T17:02:47.336Z,4.88
2019-02-04T17:05:16.095Z,4.80
2019-02-04T17:07:44.470Z,4.86
2019-02-04T17:10:16.978Z,4.86
2019-02-04T17:12:48.348Z,4.71
2019-02-04T17:15:18.648Z,4.75
2019-02-04T17:17:49.805Z,4.76
2019-02-04T17:20:24.972Z,4.73
2019-02-04T17:22:53.397Z,4.55
2019-02-04T17:25:21.924Z,4.64
2019-02-04T17:27:50.365Z,4.67
2019-02-04T17:30:22.787Z,4.68
2019-02-04T17:32:51.359Z,4.65
2019-02-04T17:35:19.911Z,4.76
2019-02-04T17:37:48.978Z,4.69
2019-02-04T17:40:20.044Z,4.65
2019-02-04T17:42:48.728Z,4.68
2019-02-04T17:45:17.609Z,4.49
2019-02-04T17:47:47.490Z,4.45
2019-02-04T17:50:17.956Z,4.40
2019-02-04T17:52:46.465Z,4.43
2019-02-04T17:55:18.049Z,4.55
2019-02-04T17:57:46.487Z,4.48
2019-02-04T18:00:23.389Z,4.53
2019-02-04T18:02:51.806Z,4.67
2019-02-04T18:05:20.221Z,4.59
2019-02-04T18:07:48.815Z,4.65
2019-02-04T18:10:18.395Z,4.72
2019-02-04T18:12:47.128Z,4.61
2019-02-04T18:15:18.493Z,4.56
2019-02-04T18:17:46.911Z,4.53
2019-02-04T18:20:15.815Z,4.52
2019-02-04T18:22:44.246Z,4.46
2019-02-04T18:25:17.107Z,4.46
2019-02-04T18:27:45.605Z,4.43
2019-02-04T18:30:18.176Z,4.33
2019-02-04T18:32:46.708Z,4.36
2019-02-04T18:35:16.072Z,4.22
2019-02-04T18:37:44.583Z,4.13
2019-02-04T18:40:17.166Z,4.03
2019-02-04T18:42:46.154Z,4.04
2019-02-04T18:45:16.449Z,4.11
2019-02-04T18:47:45.961Z,4.12
2019-02-04T18:50:15.357Z,3.98
2019-02-04T18:52:44.302Z,4.06
2019-02-04T18:55:15.967Z,4.05
2019-02-04T18:57:44.377Z,3.95
2019-02-04T19:00:15.650Z,3.68
2019-02-04T19:02:44.213Z,3.82
2019-02-04T19:05:13.618Z,3.76
2019-02-04T19:07:42.411Z,3.56
2019-02-04T19:10:14.146Z,3.53
2019-02-04T19:12:42.570Z,3.58
2019-02-04T19:15:15.072Z,3.59
2019-02-04T19:17:43.684Z,3.40
2019-02-04T19:20:17.497Z,3.42
2019-02-04T19:22:46.008Z,3.42
2019-02-04T19:25:17.183Z,3.45
2019-02-04T19:27:46.006Z,3.64
2019-02-04T19:30:18.227Z,3.61
2019-02-04T19:32:46.725Z,3.52
2019-02-04T19:35:15.737Z,3.70
2019-02-04T19:37:44.253Z,3.65
2019-02-04T19:40:16.154Z,3.59
2019-02-04T19:42:44.584Z,3.61
2019-02-04T19:45:15.307Z,3.69
2019-02-04T19:47:43.678Z,3.77
2019-02-04T19:50:18.911Z,3.76
2019-02-04T19:52:47.410Z,3.75
2019-02-04T19:55:16.286Z,3.75
2019-02-04T19:57:44.798Z,3.55
2019-02-04T20:00:15.629Z,3.59
2019-02-04T20:02:44.617Z,3.58
2019-02-04T20:05:15.654Z,3.60
2019-02-04T20:07:44.094Z,3.56
2019-02-04T20:10:13.672Z,3.42
2019-02-04T20:12:42.173Z,3.46
2019-02-04T20:15:13.914Z,3.52
2019-02-04T20:17:42.713Z,3.65
2019-02-04T20:20:12.137Z,3.63
2019-02-04T20:22:40.486Z,3.63
2019-02-04T20:25:15.206Z,3.61
2019-02-04T20:27:44.633Z,3.59
2019-02-04T20:30:17.582Z,3.54
2019-02-04T20:32:46.038Z,3.41
2019-02-04T20:35:14.862Z,3.46
2019-02-04T20:37:43.329Z,3.45
2019-02-04T20:40:16.875Z,3.55
2019-02-04T20:42:45.350Z,3.43
2019-02-04T20:45:15.069Z,3.44
2019-02-04T20:47:44.106Z,3.55
2019-02-04T20:50:15.881Z,3.40
2019-02-04T20:52:44.241Z,3.35
2019-02-04T20:55:13.130Z,3.24
2019-02-04T20:57:41.451Z,3.43
2019-02-04T21:00:13.816Z,3.44
2019-02-04T21:02:42.144Z,3.47
2019-02-04T21:05:11.292Z,3.33
2019-02-04T21:07:39.685Z,3.43
2019-02-04T21:10:10.638Z,3.33
2019-02-04T21:12:38.968Z,3.26
2019-02-04T21:15:10.946Z,3.31
2019-02-04T21:17:40.133Z,3.49
2019-02-04T21:20:13.556Z,3.61
2019-02-04T21:22:41.951Z,3.44
2019-02-04T21:25:11.909Z,3.49
2019-02-04T21:27:40.325Z,3.63
2019-02-04T21:30:13.463Z,3.47
2019-02-04T21:32:41.838Z,3.67
2019-02-04T21:35:10.897Z,3.49
2019-02-04T21:37:39.638Z,3.48
2019-02-04T21:40:13.243Z,3.47
2019-02-04T21:42:41.638Z,3.58
2019-02-04T21:45:13.475Z,3.56
2019-02-04T21:47:41.947Z,3.45
2019-02-04T21:50:14.561Z,3.31
2019-02-04T21:52:43.209Z,3.47
2019-02-04T21:55:12.562Z,3.46
2019-02-04T21:57:41.345Z,3.49
2019-02-04T22:00:16.096Z,3.48
2019-02-04T22:02:44.947Z,3.61
2019-02-04T22:05:15.132Z,3.55
2019-02-04T22:07:44.006Z,3.61
2019-02-04T22:10:18.811Z,3.56
2019-02-04T22:12:47.670Z,3.68
2019-02-04T22:15:16.169Z,3.76
2019-02-04T22:17:44.740Z,3.82
2019-02-04T22:20:15.241Z,3.69
2019-02-04T22:22:43.695Z,3.82
2019-02-04T22:25:19.929Z,3.80
2019-02-04T22:27:46.382Z,3.79
2019-02-04T22:30:18.799Z,3.74
2019-02-04T22:32:47.427Z,3.77
2019-02-04T22:35:17.240Z,3.68
2019-02-04T22:37:45.674Z,3.65
2019-02-04T22:40:18.048Z,3.63
2019-02-04T22:42:46.390Z,3.69
2019-02-04T22:45:16.368Z,3.73
2019-02-04T22:47:44.786Z,3.57
2019-02-04T22:50:14.957Z,3.67
2019-02-04T22:52:43.436Z,3.64
2019-02-04T22:55:13.926Z,3.55
2019-02-04T22:57:42.286Z,3.58
2019-02-04T23:00:14.020Z,3.40
2019-02-04T23:02:42.454Z,3.40
2019-02-04T23:05:11.310Z,3.36
2019-02-04T23:07:39.617Z,3.39
2019-02-04T23:10:08.693Z,3.30
2019-02-04T23:12:37.066Z,3.21
2019-02-04T23:15:07.937Z,3.10
2019-02-04T23:17:36.369Z,3.02
2019-02-04T23:20:06.894Z,2.81
2019-02-04T23:22:35.387Z,3.03
2019-02-04T23:25:05.987Z,3.02
2019-02-04T23:27:34.629Z,3.22
2019-02-04T23:30:07.266Z,3.03
2019-02-04T23:32:35.650Z,3.14
2019-02-04T23:35:04.368Z,3.14
2019-02-04T23:37:32.825Z,3.06
2019-02-04T23:40:01.247Z,2.92
2019-02-04T23:42:29.622Z,2.97
2019-02-04T23:44:57.964Z,3.05
2019-02-04T23:47:26.279Z,3.24
2019-02-04T23:49:54.669Z,3.28
2019-02-04T23:52:22.992Z,3.45
2019-02-04T23:54:51.690Z,3.54
2019-02-04T23:57:20.043Z,3.46
2019-02-04T23:59:48.408Z,3.39
